sensor_id;sensor_type;location;lat;lon;timestamp;temperature;humidity
7174;DHT22;3628;48.654;8.932;2024-03-22T00:00:41;8.00;99.90
7174;DHT22;3628;48.654;8.932;2024-03-22T00:03:06;7.90;99.90
7174;DHT22;3628;48.654;8.932;2024-03-22T00:05:32;7.90;99.90
7174;DHT22;3628;48.654;8.932;2024-03-22T00:07:57;7.80;99.90
7174;DHT22;3628;48.654;8.932;2024-03-22T00:10:23;7.80;99.90
7174;DHT22;3628;48.654;8.932;2024-03-22T00:12:52;7.70;99.90
7174;DHT22;3628;48.654;8.932;2024-03-22T00:15:17;7.70;99.90
7174;DHT22;3628;48.654;8.932;2024-03-22T00:17:44;7.60;99.90
7174;DHT22;3628;48.654;8.932;2024-03-22T00:20:10;7.60;99.90
7174;DHT22;3628;48.654;8.932;2024-03-22T00:22:35;7.60;99.90
7174;DHT22;3628;48.654;8.932;2024-03-22T00:25:01;7.50;99.90
7174;DHT22;3628;48.654;8.932;2024-03-22T00:27:26;7.50;99.90
7174;DHT22;3628;48.654;8.932;2024-03-22T00:29:52;7.40;99.90
7174;DHT22;3628;48.654;8.932;2024-03-22T00:32:17;7.40;99.90
7174;DHT22;3628;48.654;8.932;2024-03-22T00:34:43;7.30;99.90
7174;DHT22;3628;48.654;8.932;2024-03-22T00:37:09;7.20;99.90
7174;DHT22;3628;48.654;8.932;2024-03-22T00:39:34;7.20;99.90
7174;DHT22;3628;48.654;8.932;2024-03-22T00:42:01;7.10;99.90
7174;DHT22;3628;48.654;8.932;2024-03-22T00:44:26;7.00;99.90
7174;DHT22;3628;48.654;8.932;2024-03-22T00:46:52;7.00;99.90
7174;DHT22;3628;48.654;8.932;2024-03-22T00:49:17;7.00;99.90
7174;DHT22;3628;48.654;8.932;2024-03-22T00:51:43;6.90;99.90
7174;DHT22;3628;48.654;8.932;2024-03-22T00:54:09;6.90;99.90
7174;DHT22;3628;48.654;8.932;2024-03-22T00:56:35;6.80;99.90
7174;DHT22;3628;48.654;8.932;2024-03-22T00:59:00;6.80;99.90
7174;DHT22;3628;48.654;8.932;2024-03-22T01:01:26;6.70;99.90
7174;DHT22;3628;48.654;8.932;2024-03-22T01:03:51;6.70;99.90
7174;DHT22;3628;48.654;8.932;2024-03-22T01:06:17;6.70;99.90
7174;DHT22;3628;48.654;8.932;2024-03-22T01:08:47;6.60;99.90
7174;DHT22;3628;48.654;8.932;2024-03-22T01:11:13;6.50;99.90
7174;DHT22;3628;48.654;8.932;2024-03-22T01:13:38;6.50;99.90
7174;DHT22;3628;48.654;8.932;2024-03-22T01:16:04;6.40;99.90
7174;DHT22;3628;48.654;8.932;2024-03-22T01:18:30;6.40;99.90
7174;DHT22;3628;48.654;8.932;2024-03-22T01:20:55;6.40;99.90
7174;DHT22;3628;48.654;8.932;2024-03-22T01:23:21;6.40;99.90
7174;DHT22;3628;48.654;8.932;2024-03-22T01:25:46;6.30;99.90
7174;DHT22;3628;48.654;8.932;2024-03-22T01:28:12;6.30;99.90
7174;DHT22;3628;48.654;8.932;2024-03-22T01:30:38;6.30;99.90
7174;DHT22;3628;48.654;8.932;2024-03-22T01:33:03;6.20;99.90
7174;DHT22;3628;48.654;8.932;2024-03-22T01:35:29;6.20;99.90
7174;DHT22;3628;48.654;8.932;2024-03-22T01:37:54;6.10;99.90
7174;DHT22;3628;48.654;8.932;2024-03-22T01:40:20;6.10;99.90
7174;DHT22;3628;48.654;8.932;2024-03-22T01:42:45;6.00;99.90
7174;DHT22;3628;48.654;8.932;2024-03-22T01:45:12;6.00;99.90
7174;DHT22;3628;48.654;8.932;2024-03-22T01:47:39;5.90;99.90
7174;DHT22;3628;48.654;8.932;2024-03-22T01:50:05;5.90;99.90
7174;DHT22;3628;48.654;8.932;2024-03-22T01:52:31;5.80;99.90
7174;DHT22;3628;48.654;8.932;2024-03-22T01:54:57;5.80;99.90
7174;DHT22;3628;48.654;8.932;2024-03-22T01:57:23;5.80;99.90
7174;DHT22;3628;48.654;8.932;2024-03-22T01:59:49;5.80;99.90
7174;DHT22;3628;48.654;8.932;2024-03-22T02:02:17;5.70;99.90
7174;DHT22;3628;48.654;8.932;2024-03-22T02:04:42;5.70;99.90
7174;DHT22;3628;48.654;8.932;2024-03-22T02:07:08;5.70;99.90
7174;DHT22;3628;48.654;8.932;2024-03-22T02:09:33;5.70;99.90
7174;DHT22;3628;48.654;8.932;2024-03-22T02:11:59;5.70;99.90
7174;DHT22;3628;48.654;8.932;2024-03-22T02:14:24;5.60;99.90
7174;DHT22;3628;48.654;8.932;2024-03-22T02:16:50;5.60;99.90
7174;DHT22;3628;48.654;8.932;2024-03-22T02:19:16;5.60;99.90
7174;DHT22;3628;48.654;8.932;2024-03-22T02:21:41;5.50;99.90
7174;DHT22;3628;48.654;8.932;2024-03-22T02:24:07;5.50;99.90
7174;DHT22;3628;48.654;8.932;2024-03-22T02:26:33;5.50;99.90
7174;DHT22;3628;48.654;8.932;2024-03-22T02:28:58;5.50;99.90
7174;DHT22;3628;48.654;8.932;2024-03-22T02:31:24;5.40;99.90
7174;DHT22;3628;48.654;8.932;2024-03-22T02:33:50;5.40;99.90
7174;DHT22;3628;48.654;8.932;2024-03-22T02:36:16;5.40;99.90
7174;DHT22;3628;48.654;8.932;2024-03-22T02:38:42;5.30;99.90
7174;DHT22;3628;48.654;8.932;2024-03-22T02:41:07;5.30;99.90
7174;DHT22;3628;48.654;8.932;2024-03-22T02:43:33;5.30;99.90
7174;DHT22;3628;48.654;8.932;2024-03-22T02:45:58;5.30;99.90
7174;DHT22;3628;48.654;8.932;2024-03-22T02:48:24;5.30;99.90
7174;DHT22;3628;48.654;8.932;2024-03-22T02:50:55;5.30;99.90
7174;DHT22;3628;48.654;8.932;2024-03-22T02:53:21;5.30;99.90
7174;DHT22;3628;48.654;8.932;2024-03-22T02:55:46;5.30;99.90
7174;DHT22;3628;48.654;8.932;2024-03-22T02:58:12;5.30;99.90
7174;DHT22;3628;48.654;8.932;2024-03-22T03:00:38;5.20;99.90
7174;DHT22;3628;48.654;8.932;2024-03-22T03:03:05;5.20;99.90
7174;DHT22;3628;48.654;8.932;2024-03-22T03:05:30;5.20;99.90
7174;DHT22;3628;48.654;8.932;2024-03-22T03:07:56;5.20;99.90
7174;DHT22;3628;48.654;8.932;2024-03-22T03:10:21;5.20;99.90
7174;DHT22;3628;48.654;8.932;2024-03-22T03:12:47;5.30;99.90
7174;DHT22;3628;48.654;8.932;2024-03-22T03:15:12;5.30;99.90
7174;DHT22;3628;48.654;8.932;2024-03-22T03:17:38;5.40;99.90
7174;DHT22;3628;48.654;8.932;2024-03-22T03:20:04;5.40;99.90
7174;DHT22;3628;48.654;8.932;2024-03-22T03:22:36;5.50;99.90
7174;DHT22;3628;48.654;8.932;2024-03-22T03:25:03;5.60;99.90
7174;DHT22;3628;48.654;8.932;2024-03-22T03:27:29;5.60;99.90
7174;DHT22;3628;48.654;8.932;2024-03-22T03:29:55;5.60;99.90
7174;DHT22;3628;48.654;8.932;2024-03-22T03:32:20;5.60;99.90
7174;DHT22;3628;48.654;8.932;2024-03-22T03:34:46;5.60;99.90
7174;DHT22;3628;48.654;8.932;2024-03-22T03:37:11;5.60;99.90
7174;DHT22;3628;48.654;8.932;2024-03-22T03:39:37;5.70;99.90
7174;DHT22;3628;48.654;8.932;2024-03-22T03:42:02;5.70;99.90
7174;DHT22;3628;48.654;8.932;2024-03-22T03:44:28;5.70;99.90
7174;DHT22;3628;48.654;8.932;2024-03-22T03:46:53;5.70;99.90
7174;DHT22;3628;48.654;8.932;2024-03-22T03:49:19;5.80;99.90
7174;DHT22;3628;48.654;8.932;2024-03-22T03:51:44;5.80;99.90
7174;DHT22;3628;48.654;8.932;2024-03-22T03:54:10;5.80;99.90
7174;DHT22;3628;48.654;8.932;2024-03-22T03:56:35;5.90;99.90
7174;DHT22;3628;48.654;8.932;2024-03-22T03:59:01;5.90;99.90
7174;DHT22;3628;48.654;8.932;2024-03-22T04:01:27;5.90;99.90
7174;DHT22;3628;48.654;8.932;2024-03-22T04:03:52;5.90;99.90
7174;DHT22;3628;48.654;8.932;2024-03-22T04:06:18;5.90;99.90
7174;DHT22;3628;48.654;8.932;2024-03-22T04:08:43;5.90;99.90
7174;DHT22;3628;48.654;8.932;2024-03-22T04:11:09;5.90;99.90
7174;DHT22;3628;48.654;8.932;2024-03-22T04:13:35;5.90;99.90
7174;DHT22;3628;48.654;8.932;2024-03-22T04:16:01;6.00;99.90
7174;DHT22;3628;48.654;8.932;2024-03-22T04:18:26;6.00;99.90
7174;DHT22;3628;48.654;8.932;2024-03-22T04:20:56;6.00;99.90
7174;DHT22;3628;48.654;8.932;2024-03-22T04:23:22;6.00;99.90
7174;DHT22;3628;48.654;8.932;2024-03-22T04:25:57;6.00;99.90
7174;DHT22;3628;48.654;8.932;2024-03-22T04:28:22;6.10;99.90
7174;DHT22;3628;48.654;8.932;2024-03-22T04:31:03;6.10;99.90
7174;DHT22;3628;48.654;8.932;2024-03-22T04:33:29;6.20;99.90
7174;DHT22;3628;48.654;8.932;2024-03-22T04:35:56;6.20;99.90
7174;DHT22;3628;48.654;8.932;2024-03-22T04:38:22;6.20;99.90
7174;DHT22;3628;48.654;8.932;2024-03-22T04:40:48;6.20;99.90
7174;DHT22;3628;48.654;8.932;2024-03-22T04:43:14;6.30;99.90
7174;DHT22;3628;48.654;8.932;2024-03-22T04:45:45;6.30;99.90
7174;DHT22;3628;48.654;8.932;2024-03-22T04:48:13;6.30;99.90
7174;DHT22;3628;48.654;8.932;2024-03-22T04:50:38;6.30;99.90
7174;DHT22;3628;48.654;8.932;2024-03-22T04:53:04;6.40;99.90
7174;DHT22;3628;48.654;8.932;2024-03-22T04:55:31;6.40;99.90
7174;DHT22;3628;48.654;8.932;2024-03-22T04:57:56;6.40;99.90
7174;DHT22;3628;48.654;8.932;2024-03-22T05:00:22;6.40;99.90
7174;DHT22;3628;48.654;8.932;2024-03-22T05:02:47;6.50;99.90
7174;DHT22;3628;48.654;8.932;2024-03-22T05:05:13;6.50;99.90
7174;DHT22;3628;48.654;8.932;2024-03-22T05:07:38;6.50;99.90
7174;DHT22;3628;48.654;8.932;2024-03-22T05:10:04;6.50;99.90
7174;DHT22;3628;48.654;8.932;2024-03-22T05:12:30;6.60;99.90
7174;DHT22;3628;48.654;8.932;2024-03-22T05:14:56;6.60;99.90
7174;DHT22;3628;48.654;8.932;2024-03-22T05:17:22;6.60;99.90
7174;DHT22;3628;48.654;8.932;2024-03-22T05:19:47;6.60;99.90
7174;DHT22;3628;48.654;8.932;2024-03-22T05:22:13;6.60;99.90
7174;DHT22;3628;48.654;8.932;2024-03-22T05:24:38;6.60;99.90
7174;DHT22;3628;48.654;8.932;2024-03-22T05:27:04;6.60;99.90
7174;DHT22;3628;48.654;8.932;2024-03-22T05:29:30;6.60;99.90
7174;DHT22;3628;48.654;8.932;2024-03-22T05:31:55;6.60;99.90
7174;DHT22;3628;48.654;8.932;2024-03-22T05:34:21;6.50;99.90
7174;DHT22;3628;48.654;8.932;2024-03-22T05:36:46;6.50;99.90
7174;DHT22;3628;48.654;8.932;2024-03-22T05:39:12;6.50;99.90
7174;DHT22;3628;48.654;8.932;2024-03-22T05:41:38;6.40;99.90
7174;DHT22;3628;48.654;8.932;2024-03-22T05:44:04;6.40;99.90
7174;DHT22;3628;48.654;8.932;2024-03-22T05:46:30;6.40;99.90
7174;DHT22;3628;48.654;8.932;2024-03-22T05:48:57;6.40;99.90
7174;DHT22;3628;48.654;8.932;2024-03-22T05:51:23;6.40;99.90
7174;DHT22;3628;48.654;8.932;2024-03-22T05:53:48;6.30;99.90
7174;DHT22;3628;48.654;8.932;2024-03-22T05:56:14;6.40;99.90
7174;DHT22;3628;48.654;8.932;2024-03-22T05:58:39;6.40;99.90
7174;DHT22;3628;48.654;8.932;2024-03-22T06:01:05;6.40;99.90
7174;DHT22;3628;48.654;8.932;2024-03-22T06:03:31;6.40;99.90
7174;DHT22;3628;48.654;8.932;2024-03-22T06:05:59;6.40;99.90
7174;DHT22;3628;48.654;8.932;2024-03-22T06:08:26;6.40;99.90
7174;DHT22;3628;48.654;8.932;2024-03-22T06:10:55;6.50;99.90
7174;DHT22;3628;48.654;8.932;2024-03-22T06:13:21;6.40;99.90
7174;DHT22;3628;48.654;8.932;2024-03-22T06:15:49;6.50;99.90
7174;DHT22;3628;48.654;8.932;2024-03-22T06:18:14;6.50;99.90
7174;DHT22;3628;48.654;8.932;2024-03-22T06:20:40;6.50;99.90
7174;DHT22;3628;48.654;8.932;2024-03-22T06:23:08;6.60;99.90
7174;DHT22;3628;48.654;8.932;2024-03-22T06:25:34;6.70;99.90
7174;DHT22;3628;48.654;8.932;2024-03-22T06:27:59;6.80;99.90
7174;DHT22;3628;48.654;8.932;2024-03-22T06:30:25;6.80;99.90
7174;DHT22;3628;48.654;8.932;2024-03-22T06:32:50;6.90;99.90
7174;DHT22;3628;48.654;8.932;2024-03-22T06:35:16;6.90;99.90
7174;DHT22;3628;48.654;8.932;2024-03-22T06:37:41;7.00;99.90
7174;DHT22;3628;48.654;8.932;2024-03-22T06:40:07;7.00;99.90
7174;DHT22;3628;48.654;8.932;2024-03-22T06:42:33;7.20;99.90
7174;DHT22;3628;48.654;8.932;2024-03-22T06:44:59;7.30;99.90
7174;DHT22;3628;48.654;8.932;2024-03-22T06:47:24;7.40;99.90
7174;DHT22;3628;48.654;8.932;2024-03-22T06:49:50;7.50;99.90
7174;DHT22;3628;48.654;8.932;2024-03-22T06:52:15;7.60;99.90
7174;DHT22;3628;48.654;8.932;2024-03-22T06:54:41;7.70;99.90
7174;DHT22;3628;48.654;8.932;2024-03-22T06:57:07;7.90;99.90
7174;DHT22;3628;48.654;8.932;2024-03-22T06:59:32;8.10;99.90
7174;DHT22;3628;48.654;8.932;2024-03-22T07:01:58;8.20;99.90
7174;DHT22;3628;48.654;8.932;2024-03-22T07:04:24;8.30;99.90
7174;DHT22;3628;48.654;8.932;2024-03-22T07:06:49;8.30;99.90
7174;DHT22;3628;48.654;8.932;2024-03-22T07:09:15;8.40;99.90
7174;DHT22;3628;48.654;8.932;2024-03-22T07:11:40;8.50;99.90
7174;DHT22;3628;48.654;8.932;2024-03-22T07:14:06;8.60;99.90
7174;DHT22;3628;48.654;8.932;2024-03-22T07:16:32;8.80;99.90
7174;DHT22;3628;48.654;8.932;2024-03-22T07:18:57;8.90;99.90
7174;DHT22;3628;48.654;8.932;2024-03-22T07:21:23;9.10;99.90
7174;DHT22;3628;48.654;8.932;2024-03-22T07:23:48;9.30;99.90
7174;DHT22;3628;48.654;8.932;2024-03-22T07:26:14;9.40;99.90
7174;DHT22;3628;48.654;8.932;2024-03-22T07:28:39;9.60;99.90
7174;DHT22;3628;48.654;8.932;2024-03-22T07:31:05;9.90;99.90
7174;DHT22;3628;48.654;8.932;2024-03-22T07:33:31;10.10;99.90
7174;DHT22;3628;48.654;8.932;2024-03-22T07:36:04;10.40;99.90
7174;DHT22;3628;48.654;8.932;2024-03-22T07:38:30;10.70;99.90
7174;DHT22;3628;48.654;8.932;2024-03-22T07:40:55;10.90;99.90
7174;DHT22;3628;48.654;8.932;2024-03-22T07:43:21;11.20;99.90
7174;DHT22;3628;48.654;8.932;2024-03-22T07:45:47;11.40;99.90
7174;DHT22;3628;48.654;8.932;2024-03-22T07:48:12;11.60;99.90
7174;DHT22;3628;48.654;8.932;2024-03-22T07:50:38;11.80;99.90
7174;DHT22;3628;48.654;8.932;2024-03-22T07:53:03;12.00;99.90
7174;DHT22;3628;48.654;8.932;2024-03-22T07:55:29;12.20;99.90
7174;DHT22;3628;48.654;8.932;2024-03-22T07:57:54;12.40;99.90
7174;DHT22;3628;48.654;8.932;2024-03-22T08:00:20;12.60;99.90
7174;DHT22;3628;48.654;8.932;2024-03-22T08:02:45;12.80;99.90
7174;DHT22;3628;48.654;8.932;2024-03-22T08:05:11;12.90;99.90
7174;DHT22;3628;48.654;8.932;2024-03-22T08:07:36;13.20;99.90
7174;DHT22;3628;48.654;8.932;2024-03-22T08:10:02;13.40;99.90
7174;DHT22;3628;48.654;8.932;2024-03-22T08:12:29;13.60;99.90
7174;DHT22;3628;48.654;8.932;2024-03-22T08:14:55;13.70;99.90
7174;DHT22;3628;48.654;8.932;2024-03-22T08:17:21;13.80;99.90
7174;DHT22;3628;48.654;8.932;2024-03-22T08:19:46;13.90;99.90
7174;DHT22;3628;48.654;8.932;2024-03-22T08:22:12;14.20;99.90
7174;DHT22;3628;48.654;8.932;2024-03-22T08:24:37;14.30;99.90
7174;DHT22;3628;48.654;8.932;2024-03-22T08:27:03;14.50;99.90
7174;DHT22;3628;48.654;8.932;2024-03-22T08:29:29;14.60;99.90
7174;DHT22;3628;48.654;8.932;2024-03-22T08:31:54;14.80;99.90
7174;DHT22;3628;48.654;8.932;2024-03-22T08:34:21;15.10;99.90
7174;DHT22;3628;48.654;8.932;2024-03-22T08:36:47;15.30;99.90
7174;DHT22;3628;48.654;8.932;2024-03-22T08:39:12;15.30;99.90
7174;DHT22;3628;48.654;8.932;2024-03-22T08:41:38;15.40;99.90
7174;DHT22;3628;48.654;8.932;2024-03-22T08:44:03;15.40;99.90
7174;DHT22;3628;48.654;8.932;2024-03-22T08:46:29;15.50;99.90
7174;DHT22;3628;48.654;8.932;2024-03-22T08:48:54;15.60;99.90
7174;DHT22;3628;48.654;8.932;2024-03-22T08:51:21;15.70;99.90
7174;DHT22;3628;48.654;8.932;2024-03-22T08:53:47;16.00;99.90
7174;DHT22;3628;48.654;8.932;2024-03-22T08:56:12;16.20;99.90
7174;DHT22;3628;48.654;8.932;2024-03-22T08:58:38;16.40;99.90
7174;DHT22;3628;48.654;8.932;2024-03-22T09:01:04;16.60;99.90
7174;DHT22;3628;48.654;8.932;2024-03-22T09:03:30;16.90;99.90
7174;DHT22;3628;48.654;8.932;2024-03-22T09:05:56;17.40;99.90
7174;DHT22;3628;48.654;8.932;2024-03-22T09:08:21;17.70;99.90
7174;DHT22;3628;48.654;8.932;2024-03-22T09:10:47;18.10;99.90
7174;DHT22;3628;48.654;8.932;2024-03-22T09:13:13;18.40;99.90
7174;DHT22;3628;48.654;8.932;2024-03-22T09:15:39;18.60;99.90
7174;DHT22;3628;48.654;8.932;2024-03-22T09:18:05;18.80;99.90
7174;DHT22;3628;48.654;8.932;2024-03-22T09:20:30;19.00;99.90
7174;DHT22;3628;48.654;8.932;2024-03-22T09:22:56;19.00;98.70
7174;DHT22;3628;48.654;8.932;2024-03-22T09:25:23;18.90;96.10
7174;DHT22;3628;48.654;8.932;2024-03-22T09:27:49;19.00;95.90
7174;DHT22;3628;48.654;8.932;2024-03-22T09:30:15;19.20;97.00
7174;DHT22;3628;48.654;8.932;2024-03-22T09:32:41;19.40;97.20
7174;DHT22;3628;48.654;8.932;2024-03-22T09:35:08;19.50;96.40
7174;DHT22;3628;48.654;8.932;2024-03-22T09:37:33;19.60;96.20
7174;DHT22;3628;48.654;8.932;2024-03-22T09:39:59;19.90;94.60
7174;DHT22;3628;48.654;8.932;2024-03-22T09:42:25;19.80;93.20
7174;DHT22;3628;48.654;8.932;2024-03-22T09:44:51;19.60;93.50
7174;DHT22;3628;48.654;8.932;2024-03-22T09:47:18;19.50;93.90
7174;DHT22;3628;48.654;8.932;2024-03-22T09:49:44;19.40;94.30
7174;DHT22;3628;48.654;8.932;2024-03-22T09:52:14;19.30;93.40
7174;DHT22;3628;48.654;8.932;2024-03-22T09:54:44;19.30;92.50
7174;DHT22;3628;48.654;8.932;2024-03-22T09:57:14;19.30;93.00
7174;DHT22;3628;48.654;8.932;2024-03-22T09:59:41;19.40;92.70
7174;DHT22;3628;48.654;8.932;2024-03-22T10:02:10;19.40;92.10
7174;DHT22;3628;48.654;8.932;2024-03-22T10:04:36;19.40;91.40
7174;DHT22;3628;48.654;8.932;2024-03-22T10:07:02;19.10;90.90
7174;DHT22;3628;48.654;8.932;2024-03-22T10:09:29;19.20;92.10
7174;DHT22;3628;48.654;8.932;2024-03-22T10:11:56;19.30;92.00
7174;DHT22;3628;48.654;8.932;2024-03-22T10:14:22;19.30;91.80
7174;DHT22;3628;48.654;8.932;2024-03-22T10:16:51;19.50;92.50
7174;DHT22;3628;48.654;8.932;2024-03-22T10:19:18;19.70;91.50
7174;DHT22;3628;48.654;8.932;2024-03-22T10:21:44;19.90;90.70
7174;DHT22;3628;48.654;8.932;2024-03-22T10:24:09;20.00;91.30
7174;DHT22;3628;48.654;8.932;2024-03-22T10:26:35;20.20;90.90
7174;DHT22;3628;48.654;8.932;2024-03-22T10:29:05;20.50;90.60
7174;DHT22;3628;48.654;8.932;2024-03-22T10:31:31;20.50;87.60
7174;DHT22;3628;48.654;8.932;2024-03-22T10:33:58;20.40;85.00
7174;DHT22;3628;48.654;8.932;2024-03-22T10:36:25;20.40;83.80
7174;DHT22;3628;48.654;8.932;2024-03-22T10:38:50;20.40;85.30
7174;DHT22;3628;48.654;8.932;2024-03-22T10:41:18;20.40;86.00
7174;DHT22;3628;48.654;8.932;2024-03-22T10:43:43;20.30;83.80
7174;DHT22;3628;48.654;8.932;2024-03-22T10:46:09;20.20;84.30
7174;DHT22;3628;48.654;8.932;2024-03-22T10:48:35;20.10;84.10
7174;DHT22;3628;48.654;8.932;2024-03-22T10:51:02;20.10;85.00
7174;DHT22;3628;48.654;8.932;2024-03-22T10:53:30;20.10;85.00
7174;DHT22;3628;48.654;8.932;2024-03-22T10:55:57;20.10;82.90
7174;DHT22;3628;48.654;8.932;2024-03-22T10:58:25;20.00;86.30
7174;DHT22;3628;48.654;8.932;2024-03-22T11:00:54;20.00;86.20
7174;DHT22;3628;48.654;8.932;2024-03-22T11:03:24;20.00;85.80
7174;DHT22;3628;48.654;8.932;2024-03-22T11:05:54;20.10;85.40
7174;DHT22;3628;48.654;8.932;2024-03-22T11:08:27;20.00;84.70
7174;DHT22;3628;48.654;8.932;2024-03-22T11:10:53;20.10;84.90
7174;DHT22;3628;48.654;8.932;2024-03-22T11:13:19;20.10;84.30
7174;DHT22;3628;48.654;8.932;2024-03-22T11:15:47;20.30;84.80
7174;DHT22;3628;48.654;8.932;2024-03-22T11:18:13;20.30;82.30
7174;DHT22;3628;48.654;8.932;2024-03-22T11:20:39;20.50;82.00
7174;DHT22;3628;48.654;8.932;2024-03-22T11:23:05;20.80;81.90
7174;DHT22;3628;48.654;8.932;2024-03-22T11:25:32;21.10;81.40
7174;DHT22;3628;48.654;8.932;2024-03-22T11:27:58;21.40;80.70
7174;DHT22;3628;48.654;8.932;2024-03-22T11:30:26;21.80;80.80
7174;DHT22;3628;48.654;8.932;2024-03-22T11:32:52;22.00;79.30
7174;DHT22;3628;48.654;8.932;2024-03-22T11:35:18;22.30;78.90
7174;DHT22;3628;48.654;8.932;2024-03-22T11:37:43;22.50;77.20
7174;DHT22;3628;48.654;8.932;2024-03-22T11:40:09;22.40;76.70
7174;DHT22;3628;48.654;8.932;2024-03-22T11:42:39;22.40;75.50
7174;DHT22;3628;48.654;8.932;2024-03-22T11:45:07;22.20;74.00
7174;DHT22;3628;48.654;8.932;2024-03-22T11:47:33;22.50;76.80
7174;DHT22;3628;48.654;8.932;2024-03-22T11:49:59;22.80;76.10
7174;DHT22;3628;48.654;8.932;2024-03-22T11:52:28;22.80;75.10
7174;DHT22;3628;48.654;8.932;2024-03-22T11:54:54;22.60;73.00
7174;DHT22;3628;48.654;8.932;2024-03-22T11:57:23;22.80;73.00
7174;DHT22;3628;48.654;8.932;2024-03-22T11:59:49;23.00;71.20
7174;DHT22;3628;48.654;8.932;2024-03-22T12:02:15;23.30;71.50
7174;DHT22;3628;48.654;8.932;2024-03-22T12:04:47;23.30;70.30
7174;DHT22;3628;48.654;8.932;2024-03-22T12:07:13;23.30;70.80
7174;DHT22;3628;48.654;8.932;2024-03-22T12:09:43;23.40;71.70
7174;DHT22;3628;48.654;8.932;2024-03-22T12:12:10;23.20;68.80
7174;DHT22;3628;48.654;8.932;2024-03-22T12:14:36;23.10;69.40
7174;DHT22;3628;48.654;8.932;2024-03-22T12:17:05;23.10;67.30
7174;DHT22;3628;48.654;8.932;2024-03-22T12:19:31;23.30;66.90
7174;DHT22;3628;48.654;8.932;2024-03-22T12:21:57;23.20;66.50
7174;DHT22;3628;48.654;8.932;2024-03-22T12:24:23;23.20;68.70
7174;DHT22;3628;48.654;8.932;2024-03-22T12:26:49;23.20;68.70
7174;DHT22;3628;48.654;8.932;2024-03-22T12:29:18;23.20;68.90
7174;DHT22;3628;48.654;8.932;2024-03-22T12:31:44;23.50;68.50
7174;DHT22;3628;48.654;8.932;2024-03-22T12:34:10;23.50;67.10
7174;DHT22;3628;48.654;8.932;2024-03-22T12:36:36;23.50;65.60
7174;DHT22;3628;48.654;8.932;2024-03-22T12:39:01;23.50;64.80
7174;DHT22;3628;48.654;8.932;2024-03-22T12:41:29;23.60;64.30
7174;DHT22;3628;48.654;8.932;2024-03-22T12:43:55;23.20;64.60
7174;DHT22;3628;48.654;8.932;2024-03-22T12:46:21;23.10;66.20
7174;DHT22;3628;48.654;8.932;2024-03-22T12:48:47;23.00;66.00
7174;DHT22;3628;48.654;8.932;2024-03-22T12:51:12;23.00;66.30
7174;DHT22;3628;48.654;8.932;2024-03-22T12:53:38;23.20;66.30
7174;DHT22;3628;48.654;8.932;2024-03-22T12:56:04;23.20;66.60
7174;DHT22;3628;48.654;8.932;2024-03-22T12:58:33;23.20;67.10
7174;DHT22;3628;48.654;8.932;2024-03-22T13:00:58;23.20;65.30
7174;DHT22;3628;48.654;8.932;2024-03-22T13:03:28;23.10;63.60
7174;DHT22;3628;48.654;8.932;2024-03-22T13:05:53;23.10;64.50
7174;DHT22;3628;48.654;8.932;2024-03-22T13:08:19;23.00;62.80
7174;DHT22;3628;48.654;8.932;2024-03-22T13:10:46;23.00;63.30
7174;DHT22;3628;48.654;8.932;2024-03-22T13:13:12;23.00;64.30
7174;DHT22;3628;48.654;8.932;2024-03-22T13:15:40;23.30;68.00
7174;DHT22;3628;48.654;8.932;2024-03-22T13:18:06;23.40;67.00
7174;DHT22;3628;48.654;8.932;2024-03-22T13:20:32;23.60;66.10
7174;DHT22;3628;48.654;8.932;2024-03-22T13:22:58;23.40;64.80
7174;DHT22;3628;48.654;8.932;2024-03-22T13:25:24;23.50;63.00
7174;DHT22;3628;48.654;8.932;2024-03-22T13:27:49;23.50;63.30
7174;DHT22;3628;48.654;8.932;2024-03-22T13:30:15;23.70;66.00
7174;DHT22;3628;48.654;8.932;2024-03-22T13:32:40;23.80;65.90
7174;DHT22;3628;48.654;8.932;2024-03-22T13:35:07;23.80;63.70
7174;DHT22;3628;48.654;8.932;2024-03-22T13:37:33;24.00;64.30
7174;DHT22;3628;48.654;8.932;2024-03-22T13:39:59;24.20;62.80
7174;DHT22;3628;48.654;8.932;2024-03-22T13:42:26;24.20;60.30
7174;DHT22;3628;48.654;8.932;2024-03-22T13:44:51;24.20;59.00
7174;DHT22;3628;48.654;8.932;2024-03-22T13:47:17;24.10;58.20
7174;DHT22;3628;48.654;8.932;2024-03-22T13:49:44;24.10;58.30
7174;DHT22;3628;48.654;8.932;2024-03-22T13:52:10;24.20;58.10
7174;DHT22;3628;48.654;8.932;2024-03-22T13:54:36;24.20;57.00
7174;DHT22;3628;48.654;8.932;2024-03-22T13:57:02;23.90;54.30
7174;DHT22;3628;48.654;8.932;2024-03-22T13:59:31;23.40;53.70
7174;DHT22;3628;48.654;8.932;2024-03-22T14:01:56;23.30;55.00
7174;DHT22;3628;48.654;8.932;2024-03-22T14:04:22;23.20;54.30
7174;DHT22;3628;48.654;8.932;2024-03-22T14:06:48;23.10;53.90
7174;DHT22;3628;48.654;8.932;2024-03-22T14:09:14;23.00;54.50
7174;DHT22;3628;48.654;8.932;2024-03-22T14:11:41;23.10;55.40
7174;DHT22;3628;48.654;8.932;2024-03-22T14:15:26;23.20;52.60
7174;DHT22;3628;48.654;8.932;2024-03-22T14:17:54;23.10;54.30
7174;DHT22;3628;48.654;8.932;2024-03-22T14:20:20;22.70;51.10
7174;DHT22;3628;48.654;8.932;2024-03-22T14:22:46;22.40;52.20
7174;DHT22;3628;48.654;8.932;2024-03-22T14:25:13;22.30;53.40
7174;DHT22;3628;48.654;8.932;2024-03-22T14:27:39;22.10;55.00
7174;DHT22;3628;48.654;8.932;2024-03-22T14:30:05;21.80;54.00
7174;DHT22;3628;48.654;8.932;2024-03-22T14:32:32;21.80;54.60
7174;DHT22;3628;48.654;8.932;2024-03-22T14:34:57;21.80;55.10
7174;DHT22;3628;48.654;8.932;2024-03-22T14:37:23;21.40;55.10
7174;DHT22;3628;48.654;8.932;2024-03-22T14:39:48;21.00;55.40
7174;DHT22;3628;48.654;8.932;2024-03-22T14:42:14;20.70;56.60
7174;DHT22;3628;48.654;8.932;2024-03-22T14:44:39;20.60;56.90
7174;DHT22;3628;48.654;8.932;2024-03-22T14:47:05;20.60;57.00
7174;DHT22;3628;48.654;8.932;2024-03-22T14:49:31;20.60;56.50
7174;DHT22;3628;48.654;8.932;2024-03-22T14:51:57;20.60;55.80
7174;DHT22;3628;48.654;8.932;2024-03-22T14:54:23;20.60;56.20
7174;DHT22;3628;48.654;8.932;2024-03-22T14:56:48;20.60;56.70
7174;DHT22;3628;48.654;8.932;2024-03-22T14:59:14;20.70;57.20
7174;DHT22;3628;48.654;8.932;2024-03-22T15:01:39;20.70;56.00
7174;DHT22;3628;48.654;8.932;2024-03-22T15:04:05;20.80;56.60
7174;DHT22;3628;48.654;8.932;2024-03-22T15:06:32;20.90;56.60
7174;DHT22;3628;48.654;8.932;2024-03-22T15:08:58;20.90;56.50
7174;DHT22;3628;48.654;8.932;2024-03-22T15:11:24;20.80;55.60
7174;DHT22;3628;48.654;8.932;2024-03-22T15:13:50;20.70;56.70
7174;DHT22;3628;48.654;8.932;2024-03-22T15:16:15;20.70;55.60
7174;DHT22;3628;48.654;8.932;2024-03-22T15:18:41;20.60;52.40
7174;DHT22;3628;48.654;8.932;2024-03-22T15:21:07;20.40;53.00
7174;DHT22;3628;48.654;8.932;2024-03-22T15:23:33;20.30;55.40
7174;DHT22;3628;48.654;8.932;2024-03-22T15:25:58;20.20;56.10
7174;DHT22;3628;48.654;8.932;2024-03-22T15:28:24;20.10;55.60
7174;DHT22;3628;48.654;8.932;2024-03-22T15:30:50;20.00;54.90
7174;DHT22;3628;48.654;8.932;2024-03-22T15:33:15;19.80;54.80
7174;DHT22;3628;48.654;8.932;2024-03-22T15:35:42;19.70;54.80
7174;DHT22;3628;48.654;8.932;2024-03-22T15:38:13;19.60;53.70
7174;DHT22;3628;48.654;8.932;2024-03-22T15:40:38;19.50;54.80
7174;DHT22;3628;48.654;8.932;2024-03-22T15:43:04;19.40;55.00
7174;DHT22;3628;48.654;8.932;2024-03-22T15:45:34;19.30;56.10
7174;DHT22;3628;48.654;8.932;2024-03-22T15:47:59;19.20;55.70
7174;DHT22;3628;48.654;8.932;2024-03-22T15:50:25;19.10;55.70
7174;DHT22;3628;48.654;8.932;2024-03-22T15:52:50;19.00;55.40
7174;DHT22;3628;48.654;8.932;2024-03-22T15:55:16;18.90;55.20
7174;DHT22;3628;48.654;8.932;2024-03-22T15:57:41;18.80;56.20
7174;DHT22;3628;48.654;8.932;2024-03-22T16:00:07;18.70;57.40
7174;DHT22;3628;48.654;8.932;2024-03-22T16:02:38;18.60;57.10